sensor_id;sensor_type;location;lat;lon;timestamp;pressure;altitude;pressure_sealevel;temperature;humidity
70758;BME280;59316;52.964;7.102;2022-07-31T00:02:50;101747.16;;;16.17;nan
70758;BME280;59316;52.964;7.102;2022-07-31T00:08:09;101747.91;;;16.08;nan
70758;BME280;59316;52.964;7.102;2022-07-31T00:13:29;101742.59;;;16.08;nan
70758;BME280;59316;52.964;7.102;2022-07-31T00:18:48;101746.19;;;16.07;nan
70758;BME280;59316;52.964;7.102;2022-07-31T00:24:08;101753.41;;;16.04;nan
70758;BME280;59316;52.964;7.102;2022-07-31T00:29:27;101753.41;;;16.04;nan
70758;BME280;59316;52.964;7.102;2022-07-31T00:34:46;101746.06;;;16.08;nan
70758;BME280;59316;52.964;7.102;2022-07-31T00:40:08;101758.34;;;16.09;nan
70758;BME280;59316;52.964;7.102;2022-07-31T00:45:29;101728.88;;;16.14;nan
70758;BME280;59316;52.964;7.102;2022-07-31T00:50:48;101717.31;;;16.15;nan
70758;BME280;59316;52.964;7.102;2022-07-31T00:56:08;101720.44;;;16.20;nan
70758;BME280;59316;52.964;7.102;2022-07-31T01:01:28;101718.66;;;16.20;nan
70758;BME280;59316;52.964;7.102;2022-07-31T01:06:48;101718.53;;;16.22;nan
70758;BME280;59316;52.964;7.102;2022-07-31T01:12:14;101711.81;;;16.18;nan
70758;BME280;59316;52.964;7.102;2022-07-31T01:17:55;101716.72;;;16.11;nan
70758;BME280;59316;52.964;7.102;2022-07-31T01:24:03;101715.28;;;16.07;nan
70758;BME280;59316;52.964;7.102;2022-07-31T01:29:28;101701.91;;;15.86;nan
70758;BME280;59316;52.964;7.102;2022-07-31T01:35:08;101703.03;;;15.59;nan
70758;BME280;59316;52.964;7.102;2022-07-31T01:40:35;101688.28;;;15.32;nan
70758;BME280;59316;52.964;7.102;2022-07-31T01:46:01;101689.59;;;15.02;nan
70758;BME280;59316;52.964;7.102;2022-07-31T01:51:23;101689.06;;;14.73;nan
70758;BME280;59316;52.964;7.102;2022-07-31T01:56:45;101694.41;;;14.47;nan
70758;BME280;59316;52.964;7.102;2022-07-31T02:02:07;101691.81;;;14.21;nan
70758;BME280;59316;52.964;7.102;2022-07-31T02:07:27;101690.78;;;13.98;nan
70758;BME280;59316;52.964;7.102;2022-07-31T02:12:48;101683.19;;;13.81;nan
70758;BME280;59316;52.964;7.102;2022-07-31T02:18:09;101676.97;;;13.69;nan
70758;BME280;59316;52.964;7.102;2022-07-31T02:23:42;101682.41;;;13.53;nan
70758;BME280;59316;52.964;7.102;2022-07-31T02:29:05;101677.59;;;13.47;nan
70758;BME280;59316;52.964;7.102;2022-07-31T02:34:27;101695.50;;;13.54;nan
70758;BME280;59316;52.964;7.102;2022-07-31T02:39:53;101679.38;;;13.72;nan
70758;BME280;59316;52.964;7.102;2022-07-31T02:45:20;101680.00;;;13.88;nan
70758;BME280;59316;52.964;7.102;2022-07-31T02:50:40;101678.53;;;14.10;nan
70758;BME280;59316;52.964;7.102;2022-07-31T02:56:01;101666.25;;;14.35;nan
70758;BME280;59316;52.964;7.102;2022-07-31T03:01:25;101667.69;;;14.52;nan
70758;BME280;59316;52.964;7.102;2022-07-31T03:06:47;101663.22;;;14.65;nan
70758;BME280;59316;52.964;7.102;2022-07-31T03:12:06;101643.22;;;14.74;nan
70758;BME280;59316;52.964;7.102;2022-07-31T03:17:26;101642.28;;;14.75;nan
70758;BME280;59316;52.964;7.102;2022-07-31T03:22:49;101631.91;;;14.85;nan
70758;BME280;59316;52.964;7.102;2022-07-31T03:28:09;101643.03;;;14.88;nan
70758;BME280;59316;52.964;7.102;2022-07-31T03:33:30;101625.28;;;14.90;nan
70758;BME280;59316;52.964;7.102;2022-07-31T03:38:49;101632.03;;;14.95;nan
70758;BME280;59316;52.964;7.102;2022-07-31T03:44:18;101652.97;;;14.98;nan
70758;BME280;59316;52.964;7.102;2022-07-31T03:49:38;101630.38;;;14.94;nan
70758;BME280;59316;52.964;7.102;2022-07-31T03:54:58;101621.13;;;14.99;nan
70758;BME280;59316;52.964;7.102;2022-07-31T04:00:18;101618.03;;;15.05;nan
70758;BME280;59316;52.964;7.102;2022-07-31T04:05:40;101637.66;;;15.14;nan
70758;BME280;59316;52.964;7.102;2022-07-31T04:11:00;101624.56;;;15.24;nan
70758;BME280;59316;52.964;7.102;2022-07-31T04:16:21;101645.75;;;15.35;nan
70758;BME280;59316;52.964;7.102;2022-07-31T04:21:41;101613.09;;;15.48;nan
70758;BME280;59316;52.964;7.102;2022-07-31T04:27:01;101607.34;;;15.54;nan
70758;BME280;59316;52.964;7.102;2022-07-31T04:32:29;101617.78;;;15.55;nan
70758;BME280;59316;52.964;7.102;2022-07-31T04:37:55;101612.16;;;15.60;nan
70758;BME280;59316;52.964;7.102;2022-07-31T04:43:16;101637.16;;;15.79;nan
70758;BME280;59316;52.964;7.102;2022-07-31T04:48:36;101599.69;;;16.08;nan
70758;BME280;59316;52.964;7.102;2022-07-31T04:53:55;101613.19;;;16.48;nan
70758;BME280;59316;52.964;7.102;2022-07-31T04:59:19;101595.34;;;16.94;nan
70758;BME280;59316;52.964;7.102;2022-07-31T05:04:42;101592.22;;;17.31;nan
70758;BME280;59316;52.964;7.102;2022-07-31T05:10:01;101580.81;;;17.62;nan
70758;BME280;59316;52.964;7.102;2022-07-31T05:15:23;101584.38;;;17.82;nan
70758;BME280;59316;52.964;7.102;2022-07-31T05:20:43;101577.69;;;18.18;nan
70758;BME280;59316;52.964;7.102;2022-07-31T05:26:23;101580.50;;;18.27;nan
70758;BME280;59316;52.964;7.102;2022-07-31T05:31:43;101578.00;;;18.35;nan
70758;BME280;59316;52.964;7.102;2022-07-31T05:37:03;101571.56;;;18.47;nan
70758;BME280;59316;52.964;7.102;2022-07-31T05:42:25;101569.88;;;18.76;nan
70758;BME280;59316;52.964;7.102;2022-07-31T05:48:03;101561.06;;;19.14;nan
70758;BME280;59316;52.964;7.102;2022-07-31T05:53:27;101559.19;;;19.35;nan
70758;BME280;59316;52.964;7.102;2022-07-31T05:59:06;101562.00;;;19.33;nan
70758;BME280;59316;52.964;7.102;2022-07-31T06:04:30;101556.00;;;19.31;nan
70758;BME280;59316;52.964;7.102;2022-07-31T06:09:50;101555.78;;;19.42;nan
70758;BME280;59316;52.964;7.102;2022-07-31T06:15:10;101557.63;;;19.42;nan
70758;BME280;59316;52.964;7.102;2022-07-31T06:20:30;101566.16;;;19.45;nan
70758;BME280;59316;52.964;7.102;2022-07-31T06:25:50;101552.13;;;19.53;nan
70758;BME280;59316;52.964;7.102;2022-07-31T06:31:20;101545.03;;;19.72;nan
70758;BME280;59316;52.964;7.102;2022-07-31T06:36:41;101548.56;;;20.00;nan
70758;BME280;59316;52.964;7.102;2022-07-31T06:42:05;101542.13;;;20.21;nan
70758;BME280;59316;52.964;7.102;2022-07-31T06:47:25;101537.41;;;20.33;nan
70758;BME280;59316;52.964;7.102;2022-07-31T06:52:59;101537.69;;;20.66;nan
70758;BME280;59316;52.964;7.102;2022-07-31T06:58:19;101556.78;;;20.97;nan
70758;BME280;59316;52.964;7.102;2022-07-31T07:03:39;101533.13;;;21.20;nan
70758;BME280;59316;52.964;7.102;2022-07-31T07:08:59;101533.66;;;21.32;nan
70758;BME280;59316;52.964;7.102;2022-07-31T07:14:19;101501.78;;;21.57;nan
70758;BME280;59316;52.964;7.102;2022-07-31T07:19:40;101503.13;;;21.61;nan
70758;BME280;59316;52.964;7.102;2022-07-31T07:25:00;101502.13;;;21.62;nan
70758;BME280;59316;52.964;7.102;2022-07-31T07:30:23;101492.28;;;21.63;nan
70758;BME280;59316;52.964;7.102;2022-07-31T07:35:43;101497.47;;;21.72;nan
70758;BME280;59316;52.964;7.102;2022-07-31T07:41:08;101475.75;;;21.59;nan
70758;BME280;59316;52.964;7.102;2022-07-31T07:46:28;101466.69;;;21.52;nan
70758;BME280;59316;52.964;7.102;2022-07-31T07:51:51;101472.03;;;21.52;nan
70758;BME280;59316;52.964;7.102;2022-07-31T07:57:31;101469.81;;;21.39;nan
70758;BME280;59316;52.964;7.102;2022-07-31T08:03:14;101473.69;;;21.44;nan
70758;BME280;59316;52.964;7.102;2022-07-31T08:08:33;101476.50;;;21.43;nan
70758;BME280;59316;52.964;7.102;2022-07-31T08:14:16;101460.91;;;21.56;nan
70758;BME280;59316;52.964;7.102;2022-07-31T08:19:35;101464.28;;;21.67;nan
70758;BME280;59316;52.964;7.102;2022-07-31T08:24:56;101461.84;;;22.06;nan
70758;BME280;59316;52.964;7.102;2022-07-31T08:30:16;101455.81;;;22.21;nan
70758;BME280;59316;52.964;7.102;2022-07-31T08:35:36;101470.53;;;22.74;nan
70758;BME280;59316;52.964;7.102;2022-07-31T08:40:58;101461.28;;;22.94;nan
70758;BME280;59316;52.964;7.102;2022-07-31T08:46:18;101474.59;;;23.27;nan
70758;BME280;59316;52.964;7.102;2022-07-31T08:51:42;101482.13;;;23.23;nan
70758;BME280;59316;52.964;7.102;2022-07-31T08:57:28;101473.00;;;23.80;nan
70758;BME280;59316;52.964;7.102;2022-07-31T09:02:48;101479.75;;;24.46;nan
70758;BME280;59316;52.964;7.102;2022-07-31T09:08:31;101475.19;;;24.31;nan
70758;BME280;59316;52.964;7.102;2022-07-31T09:14:00;101476.69;;;24.11;nan
70758;BME280;59316;52.964;7.102;2022-07-31T09:19:40;101481.28;;;23.31;nan
70758;BME280;59316;52.964;7.102;2022-07-31T09:25:13;101478.34;;;23.01;nan
70758;BME280;59316;52.964;7.102;2022-07-31T09:30:35;101480.53;;;22.06;nan
70758;BME280;59316;52.964;7.102;2022-07-31T09:35:55;101488.47;;;21.73;nan
70758;BME280;59316;52.964;7.102;2022-07-31T09:41:19;101491.09;;;21.22;nan
70758;BME280;59316;52.964;7.102;2022-07-31T09:46:47;101496.13;;;20.99;nan
70758;BME280;59316;52.964;7.102;2022-07-31T09:52:17;101498.84;;;20.63;nan
70758;BME280;59316;52.964;7.102;2022-07-31T09:57:38;101496.84;;;20.03;nan
70758;BME280;59316;52.964;7.102;2022-07-31T10:03:08;101492.50;;;19.74;nan
70758;BME280;59316;52.964;7.102;2022-07-31T10:08:35;101489.66;;;19.85;nan
70758;BME280;59316;52.964;7.102;2022-07-31T10:14:20;101494.00;;;20.04;nan
70758;BME280;59316;52.964;7.102;2022-07-31T10:19:45;101489.81;;;20.38;nan
70758;BME280;59316;52.964;7.102;2022-07-31T10:25:37;101486.84;;;20.59;nan
70758;BME280;59316;52.964;7.102;2022-07-31T10:31:04;101477.25;;;20.48;nan
70758;BME280;59316;52.964;7.102;2022-07-31T10:36:28;101475.44;;;20.30;nan
70758;BME280;59316;52.964;7.102;2022-07-31T10:47:34;101463.56;;;20.25;nan
70758;BME280;59316;52.964;7.102;2022-07-31T10:53:14;101458.50;;;20.58;nan
70758;BME280;59316;52.964;7.102;2022-07-31T10:58:58;101458.22;;;20.87;nan
70758;BME280;59316;52.964;7.102;2022-07-31T11:04:38;101459.31;;;20.76;nan
70758;BME280;59316;52.964;7.102;2022-07-31T11:10:16;101450.00;;;21.07;nan
70758;BME280;59316;52.964;7.102;2022-07-31T11:16:05;101440.53;;;21.55;nan
70758;BME280;59316;52.964;7.102;2022-07-31T11:21:38;101432.81;;;21.44;nan
70758;BME280;59316;52.964;7.102;2022-07-31T11:26:59;101429.53;;;21.16;nan
70758;BME280;59316;52.964;7.102;2022-07-31T11:32:19;101426.75;;;21.34;nan
70758;BME280;59316;52.964;7.102;2022-07-31T11:37:42;101415.63;;;21.47;nan
70758;BME280;59316;52.964;7.102;2022-07-31T11:43:06;101406.97;;;21.53;nan
70758;BME280;59316;52.964;7.102;2022-07-31T11:48:25;101418.25;;;21.30;nan
70758;BME280;59316;52.964;7.102;2022-07-31T11:53:46;101415.94;;;21.01;nan
70758;BME280;59316;52.964;7.102;2022-07-31T11:59:06;101417.16;;;20.72;nan
70758;BME280;59316;52.964;7.102;2022-07-31T12:04:25;101414.22;;;20.39;nan
70758;BME280;59316;52.964;7.102;2022-07-31T12:09:45;101412.78;;;20.26;nan
70758;BME280;59316;52.964;7.102;2022-07-31T12:15:16;101403.63;;;20.03;nan
70758;BME280;59316;52.964;7.102;2022-07-31T12:20:37;101410.31;;;19.89;nan
70758;BME280;59316;52.964;7.102;2022-07-31T12:25:57;101412.19;;;19.60;nan
70758;BME280;59316;52.964;7.102;2022-07-31T12:31:17;101411.69;;;19.19;nan
70758;BME280;59316;52.964;7.102;2022-07-31T12:36:37;101410.53;;;18.94;nan
70758;BME280;59316;52.964;7.102;2022-07-31T12:41:57;101405.97;;;18.76;nan
70758;BME280;59316;52.964;7.102;2022-07-31T12:47:24;101409.81;;;18.44;nan
70758;BME280;59316;52.964;7.102;2022-07-31T12:52:45;101396.53;;;18.44;nan
70758;BME280;59316;52.964;7.102;2022-07-31T12:58:04;101396.84;;;18.22;nan
70758;BME280;59316;52.964;7.102;2022-07-31T13:03:24;101380.34;;;18.18;nan
70758;BME280;59316;52.964;7.102;2022-07-31T13:08:43;101375.72;;;18.10;nan
70758;BME280;59316;52.964;7.102;2022-07-31T13:14:03;101360.47;;;18.22;nan
70758;BME280;59316;52.964;7.102;2022-07-31T13:19:23;101351.13;;;18.38;nan
70758;BME280;59316;52.964;7.102;2022-07-31T13:24:43;101349.38;;;18.56;nan
70758;BME280;59316;52.964;7.102;2022-07-31T13:30:03;101346.31;;;18.51;nan
70758;BME280;59316;52.964;7.102;2022-07-31T13:35:23;101339.16;;;18.51;nan
70758;BME280;59316;52.964;7.102;2022-07-31T13:40:43;101334.41;;;18.55;nan
70758;BME280;59316;52.964;7.102;2022-07-31T13:46:02;101335.69;;;18.51;nan
70758;BME280;59316;52.964;7.102;2022-07-31T13:51:22;101328.91;;;18.66;nan
70758;BME280;59316;52.964;7.102;2022-07-31T13:56:41;101322.38;;;18.61;nan
70758;BME280;59316;52.964;7.102;2022-07-31T14:02:01;101314.50;;;18.69;nan
70758;BME280;59316;52.964;7.102;2022-07-31T14:07:21;101312.56;;;18.61;nan
70758;BME280;59316;52.964;7.102;2022-07-31T14:12:40;101308.44;;;18.77;nan
70758;BME280;59316;52.964;7.102;2022-07-31T14:18:00;101313.00;;;18.57;nan
70758;BME280;59316;52.964;7.102;2022-07-31T14:23:20;101308.16;;;18.42;nan
70758;BME280;59316;52.964;7.102;2022-07-31T14:28:39;101305.53;;;18.32;nan
70758;BME280;59316;52.964;7.102;2022-07-31T14:33:59;101312.06;;;18.48;nan
70758;BME280;59316;52.964;7.102;2022-07-31T14:39:19;101312.91;;;18.48;nan
70758;BME280;59316;52.964;7.102;2022-07-31T14:44:39;101311.06;;;18.96;nan
70758;BME280;59316;52.964;7.102;2022-07-31T14:49:58;101306.78;;;19.68;nan
70758;BME280;59316;52.964;7.102;2022-07-31T14:55:18;101305.09;;;19.67;nan
70758;BME280;59316;52.964;7.102;2022-07-31T15:00:37;101303.41;;;19.47;nan
70758;BME280;59316;52.964;7.102;2022-07-31T15:05:57;101303.28;;;19.31;nan
70758;BME280;59316;52.964;7.102;2022-07-31T15:11:17;101303.25;;;19.13;nan
70758;BME280;59316;52.964;7.102;2022-07-31T15:16:36;101299.28;;;18.99;nan
70758;BME280;59316;52.964;7.102;2022-07-31T15:21:57;101298.59;;;18.87;nan
70758;BME280;59316;52.964;7.102;2022-07-31T15:27:17;101308.69;;;18.83;nan
70758;BME280;59316;52.964;7.102;2022-07-31T15:32:38;101299.06;;;18.82;nan
70758;BME280;59316;52.964;7.102;2022-07-31T15:37:58;101288.34;;;19.02;nan
70758;BME280;59316;52.964;7.102;2022-07-31T15:43:18;101288.88;;;19.06;nan
70758;BME280;59316;52.964;7.102;2022-07-31T15:48:38;101295.47;;;19.65;nan
70758;BME280;59316;52.964;7.102;2022-07-31T15:53:57;101289.13;;;20.03;nan
70758;BME280;59316;52.964;7.102;2022-07-31T15:59:17;101281.00;;;21.33;nan
70758;BME280;59316;52.964;7.102;2022-07-31T16:04:36;101282.19;;;21.88;nan
70758;BME280;59316;52.964;7.102;2022-07-31T16:09:56;101277.31;;;21.09;nan
70758;BME280;59316;52.964;7.102;2022-07-31T16:15:15;101282.06;;;20.20;nan
70758;BME280;59316;52.964;7.102;2022-07-31T16:20:35;101276.88;;;19.92;nan
70758;BME280;59316;52.964;7.102;2022-07-31T16:25:55;101278.19;;;19.88;nan
70758;BME280;59316;52.964;7.102;2022-07-31T16:31:14;101278.47;;;19.67;nan
70758;BME280;59316;52.964;7.102;2022-07-31T16:36:33;101271.22;;;19.32;nan
70758;BME280;59316;52.964;7.102;2022-07-31T16:41:53;101278.72;;;19.19;nan
70758;BME280;59316;52.964;7.102;2022-07-31T16:47:12;101274.00;;;19.13;nan
70758;BME280;59316;52.964;7.102;2022-07-31T16:52:32;101276.31;;;19.44;nan
70758;BME280;59316;52.964;7.102;2022-07-31T16:57:51;101269.50;;;19.68;nan
70758;BME280;59316;52.964;7.102;2022-07-31T17:03:11;101269.59;;;19.40;nan
70758;BME280;59316;52.964;7.102;2022-07-31T17:08:32;101264.06;;;19.33;nan
70758;BME280;59316;52.964;7.102;2022-07-31T17:13:51;101268.41;;;19.34;nan
70758;BME280;59316;52.964;7.102;2022-07-31T17:19:11;101267.09;;;19.38;nan
70758;BME280;59316;52.964;7.102;2022-07-31T17:24:30;101263.84;;;19.44;nan
70758;BME280;59316;52.964;7.102;2022-07-31T17:29:50;101269.06;;;19.18;nan
70758;BME280;59316;52.964;7.102;2022-07-31T17:35:09;101258.19;;;19.11;nan
70758;BME280;59316;52.964;7.102;2022-07-31T17:40:29;101258.28;;;19.02;nan
70758;BME280;59316;52.964;7.102;2022-07-31T17:45:48;101257.97;;;19.05;nan
70758;BME280;59316;52.964;7.102;2022-07-31T17:51:08;101271.13;;;19.42;nan
70758;BME280;59316;52.964;7.102;2022-07-31T17:56:28;101262.13;;;19.61;nan
70758;BME280;59316;52.964;7.102;2022-07-31T18:01:48;101259.97;;;19.57;nan
70758;BME280;59316;52.964;7.102;2022-07-31T18:07:08;101267.19;;;19.28;nan
70758;BME280;59316;52.964;7.102;2022-07-31T18:12:28;101263.59;;;19.02;nan
70758;BME280;59316;52.964;7.102;2022-07-31T18:17:47;101267.44;;;18.79;nan
70758;BME280;59316;52.964;7.102;2022-07-31T18:23:07;101276.75;;;18.65;nan
70758;BME280;59316;52.964;7.102;2022-07-31T18:28:27;101270.09;;;18.51;nan
70758;BME280;59316;52.964;7.102;2022-07-31T18:33:46;101283.13;;;18.45;nan
70758;BME280;59316;52.964;7.102;2022-07-31T18:39:06;101276.84;;;18.46;nan
70758;BME280;59316;52.964;7.102;2022-07-31T18:44:26;101277.00;;;18.34;nan
70758;BME280;59316;52.964;7.102;2022-07-31T18:49:46;101284.44;;;18.31;nan
70758;BME280;59316;52.964;7.102;2022-07-31T18:55:06;101280.53;;;18.25;nan
70758;BME280;59316;52.964;7.102;2022-07-31T19:00:26;101280.53;;;18.25;nan
70758;BME280;59316;52.964;7.102;2022-07-31T19:05:45;101284.91;;;18.16;nan
70758;BME280;59316;52.964;7.102;2022-07-31T19:11:05;101293.28;;;18.12;nan
70758;BME280;59316;52.964;7.102;2022-07-31T19:16:25;101300.31;;;18.03;nan
70758;BME280;59316;52.964;7.102;2022-07-31T19:21:45;101292.22;;;17.95;nan
70758;BME280;59316;52.964;7.102;2022-07-31T19:27:04;101295.94;;;17.92;nan
70758;BME280;59316;52.964;7.102;2022-07-31T19:32:24;101299.44;;;17.93;nan
70758;BME280;59316;52.964;7.102;2022-07-31T19:37:44;101298.91;;;17.89;nan
70758;BME280;59316;52.964;7.102;2022-07-31T19:43:04;101305.19;;;17.88;nan
70758;BME280;59316;52.964;7.102;2022-07-31T19:48:24;101314.13;;;17.87;nan
70758;BME280;59316;52.964;7.102;2022-07-31T19:53:44;101312.72;;;17.83;nan
70758;BME280;59316;52.964;7.102;2022-07-31T19:59:03;101313.41;;;17.85;nan
70758;BME280;59316;52.964;7.102;2022-07-31T20:04:23;101313.69;;;17.82;nan
70758;BME280;59316;52.964;7.102;2022-07-31T20:09:43;101328.66;;;17.83;nan
70758;BME280;59316;52.964;7.102;2022-07-31T20:15:03;101325.59;;;17.78;nan
70758;BME280;59316;52.964;7.102;2022-07-31T20:20:23;101328.38;;;17.66;nan
70758;BME280;59316;52.964;7.102;2022-07-31T20:25:43;101325.00;;;17.64;nan
70758;BME280;59316;52.964;7.102;2022-07-31T20:31:03;101331.28;;;17.63;nan
70758;BME280;59316;52.964;7.102;2022-07-31T20:36:22;101328.38;;;17.66;nan
70758;BME280;59316;52.964;7.102;2022-07-31T20:41:42;101327.97;;;17.71;nan
70758;BME280;59316;52.964;7.102;2022-07-31T20:47:02;101327.25;;;17.69;nan
70758;BME280;59316;52.964;7.102;2022-07-31T20:52:22;101333.53;;;17.68;nan
70758;BME280;59316;52.964;7.102;2022-07-31T20:57:42;101338.13;;;17.66;nan
70758;BME280;59316;52.964;7.102;2022-07-31T21:03:01;101337.59;;;17.62;nan
70758;BME280;59316;52.964;7.102;2022-07-31T21:08:21;101342.34;;;17.59;nan
70758;BME280;59316;52.964;7.102;2022-07-31T21:13:41;101341.34;;;17.60;nan
70758;BME280;59316;52.964;7.102;2022-07-31T21:19:00;101343.16;;;17.59;nan
70758;BME280;59316;52.964;7.102;2022-07-31T21:24:19;101341.47;;;17.58;nan
70758;BME280;59316;52.964;7.102;2022-07-31T21:29:39;101356.00;;;17.54;nan
70758;BME280;59316;52.964;7.102;2022-07-31T21:35:00;101361.31;;;17.54;nan
70758;BME280;59316;52.964;7.102;2022-07-31T21:40:20;101368.41;;;17.44;nan
70758;BME280;59316;52.964;7.102;2022-07-31T21:45:40;101369.63;;;17.30;nan
70758;BME280;59316;52.964;7.102;2022-07-31T21:51:00;101382.16;;;17.18;nan
70758;BME280;59316;52.964;7.102;2022-07-31T21:56:20;101382.00;;;17.10;nan
70758;BME280;59316;52.964;7.102;2022-07-31T22:01:40;101388.22;;;16.99;nan
70758;BME280;59316;52.964;7.102;2022-07-31T22:07:00;101402.41;;;16.88;nan
70758;BME280;59316;52.964;7.102;2022-07-31T22:12:20;101409.56;;;16.76;nan
70758;BME280;59316;52.964;7.102;2022-07-31T22:17:39;101407.13;;;16.63;nan
70758;BME280;59316;52.964;7.102;2022-07-31T22:22:59;101419.91;;;16.58;nan
70758;BME280;59316;52.964;7.102;2022-07-31T22:28:20;101418.81;;;16.61;nan
70758;BME280;59316;52.964;7.102;2022-07-31T22:33:40;101421.34;;;16.62;nan
70758;BME280;59316;52.964;7.102;2022-07-31T22:39:00;101422.06;;;16.64;nan
70758;BME280;59316;52.964;7.102;2022-07-31T22:44:20;101420.13;;;16.66;nan
70758;BME280;59316;52.964;7.102;2022-07-31T22:49:40;101420.00;;;16.68;nan
70758;BME280;59316;52.964;7.102;2022-07-31T22:55:00;101422.22;;;16.73;nan
70758;BME280;59316;52.964;7.102;2022-07-31T23:00:20;101429.34;;;16.72;nan
70758;BME280;59316;52.964;7.102;2022-07-31T23:05:39;101431.84;;;16.74;nan
70758;BME280;59316;52.964;7.102;2022-07-31T23:10:59;101431.03;;;16.73;nan
70758;BME280;59316;52.964;7.102;2022-07-31T23:16:19;101435.16;;;16.87;nan
70758;BME280;59316;52.964;7.102;2022-07-31T23:21:39;101437.34;;;16.82;nan
70758;BME280;59316;52.964;7.102;2022-07-31T23:26:58;101438.31;;;16.81;nan
70758;BME280;59316;52.964;7.102;2022-07-31T23:32:18;101440.41;;;16.77;nan
70758;BME280;59316;52.964;7.102;2022-07-31T23:37:37;101436.41;;;16.83;nan
70758;BME280;59316;52.964;7.102;2022-07-31T23:42:57;101447.09;;;16.81;nan
70758;BME280;59316;52.964;7.102;2022-07-31T23:48:16;101450.63;;;16.82;nan
70758;BME280;59316;52.964;7.102;2022-07-31T23:53:36;101451.72;;;16.79;nan
70758;BME280;59316;52.964;7.102;2022-07-31T23:58:56;101454.22;;;16.81;nan
